sensor_id;sensor_type;location;lat;lon;timestamp;P1;durP1;ratioP1;P2;durP2;ratioP2
21820;SDS011;11073;48.586;12.066;2023-04-16T00:01:34;12.70;;;11.02;;
21820;SDS011;11073;48.586;12.066;2023-04-16T00:04:03;11.88;;;10.27;;
21820;SDS011;11073;48.586;12.066;2023-04-16T00:06:33;13.13;;;11.20;;
21820;SDS011;11073;48.586;12.066;2023-04-16T00:09:02;14.40;;;11.40;;
21820;SDS011;11073;48.586;12.066;2023-04-16T00:11:31;12.40;;;11.00;;
21820;SDS011;11073;48.586;12.066;2023-04-16T00:14:00;13.05;;;10.75;;
21820;SDS011;11073;48.586;12.066;2023-04-16T00:16:29;12.60;;;10.43;;
21820;SDS011;11073;48.586;12.066;2023-04-16T00:18:58;12.25;;;10.95;;
21820;SDS011;11073;48.586;12.066;2023-04-16T00:21:26;12.10;;;10.70;;
21820;SDS011;11073;48.586;12.066;2023-04-16T00:23:55;13.65;;;10.88;;
21820;SDS011;11073;48.586;12.066;2023-04-16T00:26:24;14.53;;;11.00;;
21820;SDS011;11073;48.586;12.066;2023-04-16T00:28:53;11.80;;;10.53;;
21820;SDS011;11073;48.586;12.066;2023-04-16T00:31:27;12.32;;;9.80;;
21820;SDS011;11073;48.586;12.066;2023-04-16T00:33:57;12.23;;;10.50;;
21820;SDS011;11073;48.586;12.066;2023-04-16T00:36:27;12.07;;;10.77;;
21820;SDS011;11073;48.586;12.066;2023-04-16T00:38:56;13.07;;;11.25;;
21820;SDS011;11073;48.586;12.066;2023-04-16T00:41:25;13.43;;;11.30;;
21820;SDS011;11073;48.586;12.066;2023-04-16T00:43:54;13.33;;;10.13;;
21820;SDS011;11073;48.586;12.066;2023-04-16T00:46:22;13.73;;;10.02;;
21820;SDS011;11073;48.586;12.066;2023-04-16T00:48:53;12.10;;;10.67;;
21820;SDS011;11073;48.586;12.066;2023-04-16T00:51:23;12.00;;;10.70;;
21820;SDS011;11073;48.586;12.066;2023-04-16T00:53:54;11.10;;;9.90;;
21820;SDS011;11073;48.586;12.066;2023-04-16T00:56:24;14.88;;;10.75;;
21820;SDS011;11073;48.586;12.066;2023-04-16T00:58:54;12.43;;;10.23;;
21820;SDS011;11073;48.586;12.066;2023-04-16T01:01:23;11.98;;;10.45;;
21820;SDS011;11073;48.586;12.066;2023-04-16T01:03:53;14.45;;;10.25;;
21820;SDS011;11073;48.586;12.066;2023-04-16T01:06:22;13.05;;;10.35;;
21820;SDS011;11073;48.586;12.066;2023-04-16T01:08:52;14.93;;;11.68;;
21820;SDS011;11073;48.586;12.066;2023-04-16T01:11:20;14.45;;;11.50;;
21820;SDS011;11073;48.586;12.066;2023-04-16T01:13:49;13.80;;;11.33;;
21820;SDS011;11073;48.586;12.066;2023-04-16T01:16:19;14.48;;;11.95;;
21820;SDS011;11073;48.586;12.066;2023-04-16T01:18:48;13.20;;;11.55;;
21820;SDS011;11073;48.586;12.066;2023-04-16T01:21:19;14.75;;;11.35;;
21820;SDS011;11073;48.586;12.066;2023-04-16T01:23:47;14.75;;;11.27;;
21820;SDS011;11073;48.586;12.066;2023-04-16T01:26:16;12.55;;;10.98;;
21820;SDS011;11073;48.586;12.066;2023-04-16T01:28:45;15.27;;;12.20;;
21820;SDS011;11073;48.586;12.066;2023-04-16T01:31:14;14.77;;;11.47;;
21820;SDS011;11073;48.586;12.066;2023-04-16T01:34:05;13.10;;;11.30;;
21820;SDS011;11073;48.586;12.066;2023-04-16T01:36:35;13.30;;;11.60;;
21820;SDS011;11073;48.586;12.066;2023-04-16T01:39:04;15.65;;;12.50;;
21820;SDS011;11073;48.586;12.066;2023-04-16T01:41:33;14.97;;;12.03;;
21820;SDS011;11073;48.586;12.066;2023-04-16T01:44:02;14.60;;;12.20;;
21820;SDS011;11073;48.586;12.066;2023-04-16T01:46:32;12.98;;;11.00;;
21820;SDS011;11073;48.586;12.066;2023-04-16T01:49:02;11.57;;;10.38;;
21820;SDS011;11073;48.586;12.066;2023-04-16T01:51:32;11.23;;;10.02;;
21820;SDS011;11073;48.586;12.066;2023-04-16T01:54:02;12.60;;;10.30;;
21820;SDS011;11073;48.586;12.066;2023-04-16T01:56:31;11.82;;;10.35;;
21820;SDS011;11073;48.586;12.066;2023-04-16T01:58:59;10.50;;;9.38;;
21820;SDS011;11073;48.586;12.066;2023-04-16T02:01:34;13.75;;;10.18;;
21820;SDS011;11073;48.586;12.066;2023-04-16T02:04:03;10.20;;;9.13;;
21820;SDS011;11073;48.586;12.066;2023-04-16T02:06:32;11.50;;;9.03;;
21820;SDS011;11073;48.586;12.066;2023-04-16T02:09:03;9.40;;;8.48;;
21820;SDS011;11073;48.586;12.066;2023-04-16T02:11:32;9.57;;;8.57;;
21820;SDS011;11073;48.586;12.066;2023-04-16T02:14:01;11.73;;;8.57;;
21820;SDS011;11073;48.586;12.066;2023-04-16T02:16:29;11.32;;;9.85;;
21820;SDS011;11073;48.586;12.066;2023-04-16T02:19:07;10.50;;;8.83;;
21820;SDS011;11073;48.586;12.066;2023-04-16T02:21:37;10.07;;;8.77;;
21820;SDS011;11073;48.586;12.066;2023-04-16T02:24:07;9.60;;;8.70;;
21820;SDS011;11073;48.586;12.066;2023-04-16T02:26:36;9.25;;;8.35;;
21820;SDS011;11073;48.586;12.066;2023-04-16T02:29:11;9.77;;;8.68;;
21820;SDS011;11073;48.586;12.066;2023-04-16T02:31:43;10.15;;;9.15;;
21820;SDS011;11073;48.586;12.066;2023-04-16T02:34:13;10.13;;;9.02;;
21820;SDS011;11073;48.586;12.066;2023-04-16T02:36:42;10.23;;;8.90;;
21820;SDS011;11073;48.586;12.066;2023-04-16T02:39:13;9.87;;;8.73;;
21820;SDS011;11073;48.586;12.066;2023-04-16T02:41:41;9.48;;;8.23;;
21820;SDS011;11073;48.586;12.066;2023-04-16T02:44:10;9.55;;;8.20;;
21820;SDS011;11073;48.586;12.066;2023-04-16T02:46:40;9.75;;;8.73;;
21820;SDS011;11073;48.586;12.066;2023-04-16T02:49:09;10.43;;;8.17;;
21820;SDS011;11073;48.586;12.066;2023-04-16T02:51:38;13.00;;;10.63;;
21820;SDS011;11073;48.586;12.066;2023-04-16T02:54:06;10.97;;;9.20;;
21820;SDS011;11073;48.586;12.066;2023-04-16T02:56:37;10.47;;;9.17;;
21820;SDS011;11073;48.586;12.066;2023-04-16T02:59:07;10.93;;;8.30;;
21820;SDS011;11073;48.586;12.066;2023-04-16T03:01:36;9.73;;;8.73;;
21820;SDS011;11073;48.586;12.066;2023-04-16T03:04:04;9.45;;;8.50;;
21820;SDS011;11073;48.586;12.066;2023-04-16T03:06:34;11.17;;;8.93;;
21820;SDS011;11073;48.586;12.066;2023-04-16T03:09:03;11.07;;;9.60;;
21820;SDS011;11073;48.586;12.066;2023-04-16T03:11:32;10.30;;;9.30;;
21820;SDS011;11073;48.586;12.066;2023-04-16T03:14:02;9.63;;;8.37;;
21820;SDS011;11073;48.586;12.066;2023-04-16T03:16:31;8.50;;;7.60;;
21820;SDS011;11073;48.586;12.066;2023-04-16T03:19:00;10.73;;;8.97;;
21820;SDS011;11073;48.586;12.066;2023-04-16T03:21:29;8.87;;;7.93;;
21820;SDS011;11073;48.586;12.066;2023-04-16T03:23:58;8.67;;;7.77;;
21820;SDS011;11073;48.586;12.066;2023-04-16T03:26:26;8.97;;;8.07;;
21820;SDS011;11073;48.586;12.066;2023-04-16T03:28:55;9.60;;;8.60;;
21820;SDS011;11073;48.586;12.066;2023-04-16T03:31:25;8.75;;;7.82;;
21820;SDS011;11073;48.586;12.066;2023-04-16T03:33:55;8.80;;;7.87;;
21820;SDS011;11073;48.586;12.066;2023-04-16T03:36:24;9.37;;;7.87;;
21820;SDS011;11073;48.586;12.066;2023-04-16T03:38:53;8.83;;;7.93;;
21820;SDS011;11073;48.586;12.066;2023-04-16T03:41:23;7.97;;;7.17;;
21820;SDS011;11073;48.586;12.066;2023-04-16T03:43:51;9.07;;;8.13;;
21820;SDS011;11073;48.586;12.066;2023-04-16T03:46:21;7.83;;;7.03;;
21820;SDS011;11073;48.586;12.066;2023-04-16T03:48:51;7.80;;;7.00;;
21820;SDS011;11073;48.586;12.066;2023-04-16T03:51:20;8.63;;;7.83;;
21820;SDS011;11073;48.586;12.066;2023-04-16T03:53:49;6.95;;;6.35;;
21820;SDS011;11073;48.586;12.066;2023-04-16T03:56:19;7.47;;;6.78;;
21820;SDS011;11073;48.586;12.066;2023-04-16T03:58:48;7.00;;;6.32;;
21820;SDS011;11073;48.586;12.066;2023-04-16T04:01:18;7.65;;;6.90;;
21820;SDS011;11073;48.586;12.066;2023-04-16T04:03:46;8.25;;;7.43;;
21820;SDS011;11073;48.586;12.066;2023-04-16T04:06:17;8.52;;;7.60;;
21820;SDS011;11073;48.586;12.066;2023-04-16T04:08:47;7.67;;;6.90;;
21820;SDS011;11073;48.586;12.066;2023-04-16T04:11:15;7.73;;;6.70;;
21820;SDS011;11073;48.586;12.066;2023-04-16T04:13:44;7.82;;;7.05;;
21820;SDS011;11073;48.586;12.066;2023-04-16T04:16:14;8.30;;;7.50;;
21820;SDS011;11073;48.586;12.066;2023-04-16T04:18:43;7.77;;;6.87;;
21820;SDS011;11073;48.586;12.066;2023-04-16T04:21:12;9.20;;;8.30;;
21820;SDS011;11073;48.586;12.066;2023-04-16T04:23:42;8.73;;;7.75;;
21820;SDS011;11073;48.586;12.066;2023-04-16T04:26:10;8.27;;;7.43;;
21820;SDS011;11073;48.586;12.066;2023-04-16T04:28:40;8.82;;;7.93;;
21820;SDS011;11073;48.586;12.066;2023-04-16T04:31:08;8.60;;;7.80;;
21820;SDS011;11073;48.586;12.066;2023-04-16T04:33:39;23.37;;;16.23;;
21820;SDS011;11073;48.586;12.066;2023-04-16T04:36:07;14.53;;;11.43;;
21820;SDS011;11073;48.586;12.066;2023-04-16T04:38:36;10.17;;;9.17;;
21820;SDS011;11073;48.586;12.066;2023-04-16T04:41:06;9.50;;;8.50;;
21820;SDS011;11073;48.586;12.066;2023-04-16T04:43:37;11.10;;;9.00;;
21820;SDS011;11073;48.586;12.066;2023-04-16T04:46:06;10.40;;;9.07;;
21820;SDS011;11073;48.586;12.066;2023-04-16T04:48:35;11.33;;;9.77;;
21820;SDS011;11073;48.586;12.066;2023-04-16T04:51:04;10.13;;;9.00;;
21820;SDS011;11073;48.586;12.066;2023-04-16T04:53:33;9.50;;;8.47;;
21820;SDS011;11073;48.586;12.066;2023-04-16T04:56:01;8.60;;;7.70;;
21820;SDS011;11073;48.586;12.066;2023-04-16T04:58:40;9.17;;;7.87;;
21820;SDS011;11073;48.586;12.066;2023-04-16T05:01:09;7.90;;;7.10;;
21820;SDS011;11073;48.586;12.066;2023-04-16T05:03:38;8.80;;;7.90;;
21820;SDS011;11073;48.586;12.066;2023-04-16T05:06:07;8.85;;;7.57;;
21820;SDS011;11073;48.586;12.066;2023-04-16T05:08:36;7.97;;;7.18;;
21820;SDS011;11073;48.586;12.066;2023-04-16T05:11:05;8.20;;;7.40;;
21820;SDS011;11073;48.586;12.066;2023-04-16T05:13:34;8.73;;;7.67;;
21820;SDS011;11073;48.586;12.066;2023-04-16T05:16:05;8.13;;;7.33;;
21820;SDS011;11073;48.586;12.066;2023-04-16T05:18:34;7.73;;;6.90;;
21820;SDS011;11073;48.586;12.066;2023-04-16T05:21:03;7.90;;;7.10;;
21820;SDS011;11073;48.586;12.066;2023-04-16T05:23:32;7.43;;;6.73;;
21820;SDS011;11073;48.586;12.066;2023-04-16T05:26:01;7.80;;;7.07;;
21820;SDS011;11073;48.586;12.066;2023-04-16T05:28:30;8.48;;;6.78;;
21820;SDS011;11073;48.586;12.066;2023-04-16T05:31:00;8.07;;;7.28;;
21820;SDS011;11073;48.586;12.066;2023-04-16T05:33:30;8.70;;;7.77;;
21820;SDS011;11073;48.586;12.066;2023-04-16T05:35:59;7.90;;;7.13;;
21820;SDS011;11073;48.586;12.066;2023-04-16T05:38:27;8.32;;;7.53;;
21820;SDS011;11073;48.586;12.066;2023-04-16T05:40:56;8.52;;;7.18;;
21820;SDS011;11073;48.586;12.066;2023-04-16T05:43:25;8.23;;;7.40;;
21820;SDS011;11073;48.586;12.066;2023-04-16T05:45:55;7.37;;;6.67;;
21820;SDS011;11073;48.586;12.066;2023-04-16T05:48:23;7.63;;;6.93;;
21820;SDS011;11073;48.586;12.066;2023-04-16T05:50:54;7.87;;;7.10;;
21820;SDS011;11073;48.586;12.066;2023-04-16T05:53:22;7.40;;;6.70;;
21820;SDS011;11073;48.586;12.066;2023-04-16T05:55:51;7.93;;;7.13;;
21820;SDS011;11073;48.586;12.066;2023-04-16T05:58:20;8.98;;;7.50;;
21820;SDS011;11073;48.586;12.066;2023-04-16T06:00:49;8.97;;;8.07;;
21820;SDS011;11073;48.586;12.066;2023-04-16T06:03:17;7.60;;;6.83;;
21820;SDS011;11073;48.586;12.066;2023-04-16T06:05:46;8.77;;;7.80;;
21820;SDS011;11073;48.586;12.066;2023-04-16T06:08:17;8.70;;;7.90;;
21820;SDS011;11073;48.586;12.066;2023-04-16T06:10:45;8.00;;;7.20;;
21820;SDS011;11073;48.586;12.066;2023-04-16T06:13:14;8.50;;;7.70;;
21820;SDS011;11073;48.586;12.066;2023-04-16T06:15:43;7.78;;;6.97;;
21820;SDS011;11073;48.586;12.066;2023-04-16T06:18:12;8.30;;;7.47;;
21820;SDS011;11073;48.586;12.066;2023-04-16T06:20:41;10.13;;;8.30;;
21820;SDS011;11073;48.586;12.066;2023-04-16T06:23:09;8.40;;;7.60;;
21820;SDS011;11073;48.586;12.066;2023-04-16T06:25:39;9.27;;;8.27;;
21820;SDS011;11073;48.586;12.066;2023-04-16T06:28:08;7.37;;;6.63;;
21820;SDS011;11073;48.586;12.066;2023-04-16T06:30:37;7.85;;;7.10;;
21820;SDS011;11073;48.586;12.066;2023-04-16T06:33:08;7.72;;;6.93;;
21820;SDS011;11073;48.586;12.066;2023-04-16T06:35:37;7.45;;;6.75;;
21820;SDS011;11073;48.586;12.066;2023-04-16T06:38:06;8.57;;;7.63;;
21820;SDS011;11073;48.586;12.066;2023-04-16T06:40:34;7.97;;;7.22;;
21820;SDS011;11073;48.586;12.066;2023-04-16T06:43:05;6.78;;;6.18;;
21820;SDS011;11073;48.586;12.066;2023-04-16T06:45:33;7.25;;;6.60;;
21820;SDS011;11073;48.586;12.066;2023-04-16T06:48:02;7.18;;;6.57;;
21820;SDS011;11073;48.586;12.066;2023-04-16T06:50:32;7.00;;;6.30;;
21820;SDS011;11073;48.586;12.066;2023-04-16T06:53:00;6.32;;;5.72;;
21820;SDS011;11073;48.586;12.066;2023-04-16T06:55:29;6.80;;;6.17;;
21820;SDS011;11073;48.586;12.066;2023-04-16T06:57:58;7.30;;;6.63;;
21820;SDS011;11073;48.586;12.066;2023-04-16T07:00:29;6.70;;;6.10;;
21820;SDS011;11073;48.586;12.066;2023-04-16T07:02:59;7.43;;;6.47;;
21820;SDS011;11073;48.586;12.066;2023-04-16T07:05:28;6.60;;;5.85;;
21820;SDS011;11073;48.586;12.066;2023-04-16T07:07:58;6.63;;;6.03;;
21820;SDS011;11073;48.586;12.066;2023-04-16T07:10:27;6.87;;;6.27;;
21820;SDS011;11073;48.586;12.066;2023-04-16T07:12:56;6.37;;;5.87;;
21820;SDS011;11073;48.586;12.066;2023-04-16T07:15:24;5.88;;;5.38;;
21820;SDS011;11073;48.586;12.066;2023-04-16T07:17:54;6.78;;;6.07;;
21820;SDS011;11073;48.586;12.066;2023-04-16T07:20:23;6.00;;;5.40;;
21820;SDS011;11073;48.586;12.066;2023-04-16T07:22:52;5.65;;;5.15;;
21820;SDS011;11073;48.586;12.066;2023-04-16T07:25:21;5.70;;;5.20;;
21820;SDS011;11073;48.586;12.066;2023-04-16T07:27:50;5.82;;;5.32;;
21820;SDS011;11073;48.586;12.066;2023-04-16T07:30:18;5.88;;;5.38;;
21820;SDS011;11073;48.586;12.066;2023-04-16T07:32:47;5.70;;;5.20;;
21820;SDS011;11073;48.586;12.066;2023-04-16T07:35:17;5.50;;;5.00;;
21820;SDS011;11073;48.586;12.066;2023-04-16T07:37:46;5.53;;;5.03;;
21820;SDS011;11073;48.586;12.066;2023-04-16T07:40:15;10.38;;;8.43;;
21820;SDS011;11073;48.586;12.066;2023-04-16T07:42:44;5.85;;;5.30;;
21820;SDS011;11073;48.586;12.066;2023-04-16T07:45:13;5.22;;;4.78;;
21820;SDS011;11073;48.586;12.066;2023-04-16T07:47:42;5.80;;;5.30;;
21820;SDS011;11073;48.586;12.066;2023-04-16T07:50:12;6.68;;;5.35;;
21820;SDS011;11073;48.586;12.066;2023-04-16T07:52:42;4.93;;;4.43;;
21820;SDS011;11073;48.586;12.066;2023-04-16T07:55:11;5.03;;;4.53;;
21820;SDS011;11073;48.586;12.066;2023-04-16T07:57:40;5.45;;;4.95;;
21820;SDS011;11073;48.586;12.066;2023-04-16T08:00:10;4.95;;;4.55;;
21820;SDS011;11073;48.586;12.066;2023-04-16T08:02:39;5.65;;;5.10;;
21820;SDS011;11073;48.586;12.066;2023-04-16T08:05:08;10.37;;;7.50;;
21820;SDS011;11073;48.586;12.066;2023-04-16T08:07:36;5.00;;;4.60;;
21820;SDS011;11073;48.586;12.066;2023-04-16T08:10:07;7.80;;;6.22;;
21820;SDS011;11073;48.586;12.066;2023-04-16T08:12:36;5.37;;;4.83;;
21820;SDS011;11073;48.586;12.066;2023-04-16T08:15:05;4.43;;;4.03;;
21820;SDS011;11073;48.586;12.066;2023-04-16T08:17:35;4.93;;;4.25;;
21820;SDS011;11073;48.586;12.066;2023-04-16T08:20:04;4.25;;;3.85;;
21820;SDS011;11073;48.586;12.066;2023-04-16T08:22:34;4.20;;;3.80;;
21820;SDS011;11073;48.586;12.066;2023-04-16T08:25:03;3.95;;;3.60;;
21820;SDS011;11073;48.586;12.066;2023-04-16T08:27:33;6.25;;;5.00;;
21820;SDS011;11073;48.586;12.066;2023-04-16T08:30:02;3.97;;;3.58;;
21820;SDS011;11073;48.586;12.066;2023-04-16T08:32:32;3.90;;;3.60;;
21820;SDS011;11073;48.586;12.066;2023-04-16T08:35:00;2.95;;;2.72;;
21820;SDS011;11073;48.586;12.066;2023-04-16T08:37:30;3.40;;;3.00;;
21820;SDS011;11073;48.586;12.066;2023-04-16T08:39:58;3.38;;;3.08;;
21820;SDS011;11073;48.586;12.066;2023-04-16T08:42:29;2.67;;;2.47;;
21820;SDS011;11073;48.586;12.066;2023-04-16T08:45:03;3.28;;;2.97;;
21820;SDS011;11073;48.586;12.066;2023-04-16T08:47:36;3.13;;;2.42;;
21820;SDS011;11073;48.586;12.066;2023-04-16T08:50:04;3.28;;;2.97;;
21820;SDS011;11073;48.586;12.066;2023-04-16T08:52:36;2.97;;;2.70;;
21820;SDS011;11073;48.586;12.066;2023-04-16T08:55:11;4.00;;;2.75;;
21820;SDS011;11073;48.586;12.066;2023-04-16T08:57:43;2.78;;;2.58;;
21820;SDS011;11073;48.586;12.066;2023-04-16T09:00:17;2.80;;;2.60;;
21820;SDS011;11073;48.586;12.066;2023-04-16T09:02:46;2.60;;;2.40;;
21820;SDS011;11073;48.586;12.066;2023-04-16T09:05:16;2.35;;;2.10;;
21820;SDS011;11073;48.586;12.066;2023-04-16T09:07:47;2.50;;;2.30;;
21820;SDS011;11073;48.586;12.066;2023-04-16T09:10:15;2.20;;;2.00;;
21820;SDS011;11073;48.586;12.066;2023-04-16T09:12:44;1.90;;;1.70;;
21820;SDS011;11073;48.586;12.066;2023-04-16T09:15:14;2.17;;;1.77;;
21820;SDS011;11073;48.586;12.066;2023-04-16T09:17:43;1.75;;;1.65;;
21820;SDS011;11073;48.586;12.066;2023-04-16T09:20:12;1.73;;;1.60;;
21820;SDS011;11073;48.586;12.066;2023-04-16T09:22:42;1.45;;;1.35;;
21820;SDS011;11073;48.586;12.066;2023-04-16T09:25:11;1.40;;;1.20;;
21820;SDS011;11073;48.586;12.066;2023-04-16T09:27:39;0.95;;;0.85;;
21820;SDS011;11073;48.586;12.066;2023-04-16T09:30:18;2.42;;;1.00;;
21820;SDS011;11073;48.586;12.066;2023-04-16T09:32:50;1.20;;;1.10;;
21820;SDS011;11073;48.586;12.066;2023-04-16T09:35:20;1.10;;;1.00;;
21820;SDS011;11073;48.586;12.066;2023-04-16T09:37:54;1.48;;;1.10;;
21820;SDS011;11073;48.586;12.066;2023-04-16T09:40:24;1.08;;;0.98;;
21820;SDS011;11073;48.586;12.066;2023-04-16T09:42:55;1.65;;;1.10;;
21820;SDS011;11073;48.586;12.066;2023-04-16T09:45:25;1.13;;;1.00;;
21820;SDS011;11073;48.586;12.066;2023-04-16T09:48:02;1.08;;;0.80;;
21820;SDS011;11073;48.586;12.066;2023-04-16T09:50:32;3.55;;;2.67;;
21820;SDS011;11073;48.586;12.066;2023-04-16T09:53:01;5.63;;;3.70;;
21820;SDS011;11073;48.586;12.066;2023-04-16T09:55:31;2.13;;;1.60;;
21820;SDS011;11073;48.586;12.066;2023-04-16T09:57:59;1.77;;;1.30;;
21820;SDS011;11073;48.586;12.066;2023-04-16T10:00:29;2.55;;;1.70;;
21820;SDS011;11073;48.586;12.066;2023-04-16T10:03:03;2.30;;;1.60;;
21820;SDS011;11073;48.586;12.066;2023-04-16T10:05:33;1.45;;;1.35;;
21820;SDS011;11073;48.586;12.066;2023-04-16T10:08:09;1.60;;;1.50;;
21820;SDS011;11073;48.586;12.066;2023-04-16T10:10:39;1.48;;;1.38;;
21820;SDS011;11073;48.586;12.066;2023-04-16T10:13:08;1.48;;;1.15;;
21820;SDS011;11073;48.586;12.066;2023-04-16T10:15:39;1.58;;;1.30;;
21820;SDS011;11073;48.586;12.066;2023-04-16T10:18:10;1.15;;;0.98;;
21820;SDS011;11073;48.586;12.066;2023-04-16T10:20:39;1.40;;;1.20;;
21820;SDS011;11073;48.586;12.066;2023-04-16T10:23:08;1.30;;;1.20;;
21820;SDS011;11073;48.586;12.066;2023-04-16T10:25:37;1.15;;;0.95;;
21820;SDS011;11073;48.586;12.066;2023-04-16T10:28:06;1.73;;;1.23;;
21820;SDS011;11073;48.586;12.066;2023-04-16T10:30:36;1.10;;;1.00;;
21820;SDS011;11073;48.586;12.066;2023-04-16T10:33:06;1.15;;;1.05;;
21820;SDS011;11073;48.586;12.066;2023-04-16T10:35:39;1.20;;;1.08;;
21820;SDS011;11073;48.586;12.066;2023-04-16T10:38:21;1.77;;;1.45;;
21820;SDS011;11073;48.586;12.066;2023-04-16T10:40:58;0.93;;;0.93;;
21820;SDS011;11073;48.586;12.066;2023-04-16T10:43:29;1.80;;;1.00;;
21820;SDS011;11073;48.586;12.066;2023-04-16T10:48:47;2.28;;;1.20;;
21820;SDS011;11073;48.586;12.066;2023-04-16T10:51:26;1.40;;;1.17;;
21820;SDS011;11073;48.586;12.066;2023-04-16T10:54:01;2.00;;;1.10;;
21820;SDS011;11073;48.586;12.066;2023-04-16T10:56:31;1.15;;;0.90;;
21820;SDS011;11073;48.586;12.066;2023-04-16T10:59:03;0.75;;;0.70;;
21820;SDS011;11073;48.586;12.066;2023-04-16T11:01:33;1.63;;;0.90;;
21820;SDS011;11073;48.586;12.066;2023-04-16T11:07:15;0.80;;;0.80;;
21820;SDS011;11073;48.586;12.066;2023-04-16T11:09:49;1.10;;;1.00;;
21820;SDS011;11073;48.586;12.066;2023-04-16T11:12:19;1.13;;;1.02;;
21820;SDS011;11073;48.586;12.066;2023-04-16T11:14:50;1.92;;;1.73;;
21820;SDS011;11073;48.586;12.066;2023-04-16T11:17:20;1.30;;;1.20;;
21820;SDS011;11073;48.586;12.066;2023-04-16T11:19:49;1.52;;;1.13;;
21820;SDS011;11073;48.586;12.066;2023-04-16T11:22:21;0.80;;;0.80;;
21820;SDS011;11073;48.586;12.066;2023-04-16T11:24:52;1.25;;;1.15;;
21820;SDS011;11073;48.586;12.066;2023-04-16T11:27:23;0.90;;;0.90;;
21820;SDS011;11073;48.586;12.066;2023-04-16T11:29:56;1.30;;;1.10;;
21820;SDS011;11073;48.586;12.066;2023-04-16T11:32:25;0.90;;;0.90;;
21820;SDS011;11073;48.586;12.066;2023-04-16T11:34:54;1.13;;;1.00;;
21820;SDS011;11073;48.586;12.066;2023-04-16T11:37:31;0.95;;;0.90;;
21820;SDS011;11073;48.586;12.066;2023-04-16T11:40:01;1.42;;;1.05;;
21820;SDS011;11073;48.586;12.066;2023-04-16T11:42:33;1.20;;;1.10;;
21820;SDS011;11073;48.586;12.066;2023-04-16T11:45:03;3.40;;;1.83;;
21820;SDS011;11073;48.586;12.066;2023-04-16T11:47:41;1.42;;;1.15;;
21820;SDS011;11073;48.586;12.066;2023-04-16T11:50:16;2.22;;;1.80;;
21820;SDS011;11073;48.586;12.066;2023-04-16T11:52:47;2.45;;;2.03;;
21820;SDS011;11073;48.586;12.066;2023-04-16T11:55:16;2.15;;;1.83;;
21820;SDS011;11073;48.586;12.066;2023-04-16T11:57:45;1.27;;;1.17;;
21820;SDS011;11073;48.586;12.066;2023-04-16T12:00:16;1.10;;;1.00;;
21820;SDS011;11073;48.586;12.066;2023-04-16T12:02:50;1.45;;;0.88;;
21820;SDS011;11073;48.586;12.066;2023-04-16T12:05:28;2.80;;;1.10;;
21820;SDS011;11073;48.586;12.066;2023-04-16T12:07:59;1.23;;;1.13;;
21820;SDS011;11073;48.586;12.066;2023-04-16T12:10:29;0.98;;;0.90;;
21820;SDS011;11073;48.586;12.066;2023-04-16T12:13:10;1.13;;;1.00;;
21820;SDS011;11073;48.586;12.066;2023-04-16T12:15:44;1.02;;;0.90;;
21820;SDS011;11073;48.586;12.066;2023-04-16T12:18:14;1.10;;;1.00;;
21820;SDS011;11073;48.586;12.066;2023-04-16T12:20:43;1.02;;;0.90;;
21820;SDS011;11073;48.586;12.066;2023-04-16T12:23:22;0.68;;;0.68;;
21820;SDS011;11073;48.586;12.066;2023-04-16T12:25:52;0.90;;;0.70;;
21820;SDS011;11073;48.586;12.066;2023-04-16T12:28:28;1.33;;;0.93;;
21820;SDS011;11073;48.586;12.066;2023-04-16T12:31:03;1.00;;;0.73;;
21820;SDS011;11073;48.586;12.066;2023-04-16T12:33:32;1.88;;;0.68;;
21820;SDS011;11073;48.586;12.066;2023-04-16T12:36:01;0.73;;;0.70;;
21820;SDS011;11073;48.586;12.066;2023-04-16T12:38:45;0.90;;;0.80;;
21820;SDS011;11073;48.586;12.066;2023-04-16T12:41:14;0.80;;;0.80;;
21820;SDS011;11073;48.586;12.066;2023-04-16T12:43:43;1.70;;;0.68;;
21820;SDS011;11073;48.586;12.066;2023-04-16T12:46:12;1.10;;;1.00;;
21820;SDS011;11073;48.586;12.066;2023-04-16T12:48:42;1.00;;;0.90;;
21820;SDS011;11073;48.586;12.066;2023-04-16T12:51:10;0.60;;;0.60;;
21820;SDS011;11073;48.586;12.066;2023-04-16T12:53:39;2.53;;;0.85;;
21820;SDS011;11073;48.586;12.066;2023-04-16T12:56:09;0.68;;;0.68;;
21820;SDS011;11073;48.586;12.066;2023-04-16T12:58:38;0.60;;;0.60;;
21820;SDS011;11073;48.586;12.066;2023-04-16T13:01:06;1.73;;;1.30;;
21820;SDS011;11073;48.586;12.066;2023-04-16T13:03:35;3.20;;;1.70;;
21820;SDS011;11073;48.586;12.066;2023-04-16T13:06:03;1.75;;;1.48;;
21820;SDS011;11073;48.586;12.066;2023-04-16T13:08:33;3.15;;;1.42;;
21820;SDS011;11073;48.586;12.066;2023-04-16T13:11:02;3.05;;;1.20;;
21820;SDS011;11073;48.586;12.066;2023-04-16T13:13:32;1.00;;;0.90;;
21820;SDS011;11073;48.586;12.066;2023-04-16T13:16:02;1.98;;;0.95;;
21820;SDS011;11073;48.586;12.066;2023-04-16T13:18:32;0.65;;;0.65;;
21820;SDS011;11073;48.586;12.066;2023-04-16T13:21:02;1.17;;;0.82;;
21820;SDS011;11073;48.586;12.066;2023-04-16T13:23:31;2.05;;;0.82;;
21820;SDS011;11073;48.586;12.066;2023-04-16T13:25:59;0.93;;;0.80;;
21820;SDS011;11073;48.586;12.066;2023-04-16T13:28:28;0.82;;;0.80;;
21820;SDS011;11073;48.586;12.066;2023-04-16T13:30:58;0.77;;;0.70;;
21820;SDS011;11073;48.586;12.066;2023-04-16T13:33:29;0.80;;;0.80;;
21820;SDS011;11073;48.586;12.066;2023-04-16T13:35:57;0.70;;;0.70;;
21820;SDS011;11073;48.586;12.066;2023-04-16T13:38:26;0.88;;;0.68;;
21820;SDS011;11073;48.586;12.066;2023-04-16T13:40:56;0.77;;;0.77;;
21820;SDS011;11073;48.586;12.066;2023-04-16T13:43:25;1.15;;;0.88;;
21820;SDS011;11073;48.586;12.066;2023-04-16T13:45:54;1.60;;;1.30;;
21820;SDS011;11073;48.586;12.066;2023-04-16T13:48:24;2.17;;;1.52;;
21820;SDS011;11073;48.586;12.066;2023-04-16T13:50:52;1.95;;;1.05;;
21820;SDS011;11073;48.586;12.066;2023-04-16T13:53:22;1.00;;;0.70;;
21820;SDS011;11073;48.586;12.066;2023-04-16T13:55:51;0.90;;;0.80;;
21820;SDS011;11073;48.586;12.066;2023-04-16T13:58:19;1.80;;;1.40;;
21820;SDS011;11073;48.586;12.066;2023-04-16T14:00:48;0.68;;;0.65;;
21820;SDS011;11073;48.586;12.066;2023-04-16T14:03:17;1.20;;;1.10;;
21820;SDS011;11073;48.586;12.066;2023-04-16T14:05:47;1.13;;;1.00;;
21820;SDS011;11073;48.586;12.066;2023-04-16T14:08:16;2.10;;;1.02;;
21820;SDS011;11073;48.586;12.066;2023-04-16T14:10:47;1.20;;;1.10;;
21820;SDS011;11073;48.586;12.066;2023-04-16T14:13:16;1.02;;;0.80;;
21820;SDS011;11073;48.586;12.066;2023-04-16T14:15:45;1.02;;;0.90;;
21820;SDS011;11073;48.586;12.066;2023-04-16T14:18:13;1.38;;;1.10;;
21820;SDS011;11073;48.586;12.066;2023-04-16T14:20:42;5.10;;;0.90;;
21820;SDS011;11073;48.586;12.066;2023-04-16T14:23:12;0.93;;;0.93;;
21820;SDS011;11073;48.586;12.066;2023-04-16T14:25:41;1.38;;;1.20;;
21820;SDS011;11073;48.586;12.066;2023-04-16T14:28:10;1.20;;;1.10;;
21820;SDS011;11073;48.586;12.066;2023-04-16T14:30:41;3.47;;;1.00;;
21820;SDS011;11073;48.586;12.066;2023-04-16T14:33:10;1.05;;;0.95;;
21820;SDS011;11073;48.586;12.066;2023-04-16T14:35:38;1.15;;;0.95;;
21820;SDS011;11073;48.586;12.066;2023-04-16T14:38:07;0.98;;;0.80;;
21820;SDS011;11073;48.586;12.066;2023-04-16T14:40:37;1.45;;;1.35;;
21820;SDS011;11073;48.586;12.066;2023-04-16T14:43:07;1.00;;;0.90;;
21820;SDS011;11073;48.586;12.066;2023-04-16T14:45:35;2.20;;;0.90;;
21820;SDS011;11073;48.586;12.066;2023-04-16T14:48:05;1.40;;;1.30;;
21820;SDS011;11073;48.586;12.066;2023-04-16T14:50:34;1.15;;;1.05;;
21820;SDS011;11073;48.586;12.066;2023-04-16T14:53:03;1.63;;;1.08;;